sensor_id;sensor_type;location;lat;lon;timestamp;pressure;altitude;pressure_sealevel;temperature;humidity
9261;BME280;4667;42.726;23.252;2023-02-16T00:01:19;96497.31;;;0.59;nan
9261;BME280;4667;42.726;23.252;2023-02-16T00:03:48;96493.94;;;0.53;nan
9261;BME280;4667;42.726;23.252;2023-02-16T00:06:15;96508.78;;;0.40;nan
9261;BME280;4667;42.726;23.252;2023-02-16T00:08:46;96496.19;;;0.46;nan
9261;BME280;4667;42.726;23.252;2023-02-16T00:11:19;96496.38;;;0.50;nan
9261;BME280;4667;42.726;23.252;2023-02-16T00:14:07;96489.63;;;0.38;nan
9261;BME280;4667;42.726;23.252;2023-02-16T00:16:35;96498.84;;;0.46;nan
9261;BME280;4667;42.726;23.252;2023-02-16T00:19:15;96497.06;;;0.42;nan
9261;BME280;4667;42.726;23.252;2023-02-16T00:21:42;96493.59;;;0.41;nan
9261;BME280;4667;42.726;23.252;2023-02-16T00:24:09;96488.63;;;0.34;nan
9261;BME280;4667;42.726;23.252;2023-02-16T00:26:35;96490.50;;;0.34;nan
9261;BME280;4667;42.726;23.252;2023-02-16T00:29:03;96493.81;;;0.26;nan
9261;BME280;4667;42.726;23.252;2023-02-16T00:31:30;96504.13;;;0.14;nan
9261;BME280;4667;42.726;23.252;2023-02-16T00:33:57;96506.66;;;0.24;nan
9261;BME280;4667;42.726;23.252;2023-02-16T00:36:26;96501.88;;;0.21;nan
9261;BME280;4667;42.726;23.252;2023-02-16T00:38:52;96503.03;;;0.15;nan
9261;BME280;4667;42.726;23.252;2023-02-16T00:41:21;96502.97;;;0.20;nan
9261;BME280;4667;42.726;23.252;2023-02-16T00:44:11;96497.56;;;0.25;nan
9261;BME280;4667;42.726;23.252;2023-02-16T00:46:40;96496.41;;;0.31;nan
9261;BME280;4667;42.726;23.252;2023-02-16T00:49:12;96489.22;;;0.13;nan
9261;BME280;4667;42.726;23.252;2023-02-16T00:51:41;96494.50;;;0.18;nan
9261;BME280;4667;42.726;23.252;2023-02-16T00:54:07;96501.16;;;0.15;nan
9261;BME280;4667;42.726;23.252;2023-02-16T00:56:34;96497.34;;;0.21;nan
9261;BME280;4667;42.726;23.252;2023-02-16T00:59:02;96494.19;;;0.19;nan
9261;BME280;4667;42.726;23.252;2023-02-16T01:01:33;96494.78;;;0.16;nan
9261;BME280;4667;42.726;23.252;2023-02-16T01:04:05;96501.59;;;0.22;nan
9261;BME280;4667;42.726;23.252;2023-02-16T01:06:32;96496.13;;;0.14;nan
9261;BME280;4667;42.726;23.252;2023-02-16T01:09:19;96490.78;;;0.14;nan
9261;BME280;4667;42.726;23.252;2023-02-16T01:12:08;96486.13;;;0.06;nan
9261;BME280;4667;42.726;23.252;2023-02-16T01:14:35;96492.53;;;0.05;nan
9261;BME280;4667;42.726;23.252;2023-02-16T01:17:02;96491.03;;;-0.02;nan
9261;BME280;4667;42.726;23.252;2023-02-16T01:19:29;96490.44;;;0.02;nan
9261;BME280;4667;42.726;23.252;2023-02-16T01:21:56;96484.13;;;-0.03;nan
9261;BME280;4667;42.726;23.252;2023-02-16T01:24:24;96484.13;;;-0.03;nan
9261;BME280;4667;42.726;23.252;2023-02-16T01:26:50;96473.75;;;-0.04;nan
9261;BME280;4667;42.726;23.252;2023-02-16T01:29:19;96476.56;;;0.05;nan
9261;BME280;4667;42.726;23.252;2023-02-16T01:31:46;96476.63;;;-0.01;nan
9261;BME280;4667;42.726;23.252;2023-02-16T01:34:16;96467.69;;;-0.10;nan
9261;BME280;4667;42.726;23.252;2023-02-16T01:36:45;96464.84;;;-0.13;nan
9261;BME280;4667;42.726;23.252;2023-02-16T01:39:13;96458.28;;;-0.21;nan
9261;BME280;4667;42.726;23.252;2023-02-16T01:41:53;96455.63;;;-0.21;nan
9261;BME280;4667;42.726;23.252;2023-02-16T01:44:24;96455.53;;;-0.34;nan
9261;BME280;4667;42.726;23.252;2023-02-16T01:46:55;96453.44;;;-0.37;nan
9261;BME280;4667;42.726;23.252;2023-02-16T01:49:26;96461.16;;;-0.36;nan
9261;BME280;4667;42.726;23.252;2023-02-16T01:51:56;96450.06;;;-0.43;nan
9261;BME280;4667;42.726;23.252;2023-02-16T01:54:37;96448.41;;;-0.39;nan
9261;BME280;4667;42.726;23.252;2023-02-16T01:57:20;96444.16;;;-0.40;nan
9261;BME280;4667;42.726;23.252;2023-02-16T02:00:09;96448.13;;;-0.37;nan
9261;BME280;4667;42.726;23.252;2023-02-16T02:02:43;96453.34;;;-0.51;nan
9261;BME280;4667;42.726;23.252;2023-02-16T02:05:24;96453.06;;;-0.50;nan
9261;BME280;4667;42.726;23.252;2023-02-16T02:08:18;96455.50;;;-0.53;nan
9261;BME280;4667;42.726;23.252;2023-02-16T02:11:00;96452.41;;;-0.60;nan
9261;BME280;4667;42.726;23.252;2023-02-16T02:13:37;96454.50;;;-0.57;nan
9261;BME280;4667;42.726;23.252;2023-02-16T02:16:05;96453.69;;;-0.58;nan
9261;BME280;4667;42.726;23.252;2023-02-16T02:18:32;96443.84;;;-0.57;nan
9261;BME280;4667;42.726;23.252;2023-02-16T02:21:26;96449.16;;;-0.57;nan
9261;BME280;4667;42.726;23.252;2023-02-16T02:24:50;96445.09;;;-0.50;nan
9261;BME280;4667;42.726;23.252;2023-02-16T02:27:27;96442.78;;;-0.56;nan
9261;BME280;4667;42.726;23.252;2023-02-16T02:33:25;96437.72;;;-0.58;nan
9261;BME280;4667;42.726;23.252;2023-02-16T02:36:21;96429.03;;;-0.63;nan
9261;BME280;4667;42.726;23.252;2023-02-16T02:39:05;96431.56;;;-0.72;nan
9261;BME280;4667;42.726;23.252;2023-02-16T02:41:55;96437.69;;;-0.76;nan
9261;BME280;4667;42.726;23.252;2023-02-16T02:45:01;96448.34;;;-0.76;nan
9261;BME280;4667;42.726;23.252;2023-02-16T02:47:51;96450.56;;;-0.84;nan
9261;BME280;4667;42.726;23.252;2023-02-16T02:50:38;96453.97;;;-0.78;nan
9261;BME280;4667;42.726;23.252;2023-02-16T02:53:43;96451.41;;;-0.88;nan
9261;BME280;4667;42.726;23.252;2023-02-16T02:56:31;96451.13;;;-0.87;nan
9261;BME280;4667;42.726;23.252;2023-02-16T03:08:24;96463.06;;;-1.08;nan
9261;BME280;4667;42.726;23.252;2023-02-16T03:11:34;96459.91;;;-1.10;nan
9261;BME280;4667;42.726;23.252;2023-02-16T03:14:26;96461.47;;;-1.09;nan
9261;BME280;4667;42.726;23.252;2023-02-16T03:17:16;96457.78;;;-1.13;nan
9261;BME280;4667;42.726;23.252;2023-02-16T03:23:28;96458.97;;;-1.24;nan
9261;BME280;4667;42.726;23.252;2023-02-16T03:26:21;96459.16;;;-1.15;nan
9261;BME280;4667;42.726;23.252;2023-02-16T03:29:13;96456.78;;;-1.17;nan
9261;BME280;4667;42.726;23.252;2023-02-16T03:32:08;96457.34;;;-1.20;nan
9261;BME280;4667;42.726;23.252;2023-02-16T03:34:41;96447.25;;;-1.23;nan
9261;BME280;4667;42.726;23.252;2023-02-16T03:37:45;96437.16;;;-1.21;nan
9261;BME280;4667;42.726;23.252;2023-02-16T03:40:31;96444.94;;;-1.30;nan
9261;BME280;4667;42.726;23.252;2023-02-16T03:43:07;96445.69;;;-1.24;nan
9261;BME280;4667;42.726;23.252;2023-02-16T03:48:26;96455.56;;;-1.30;nan
9261;BME280;4667;42.726;23.252;2023-02-16T03:50:59;96447.91;;;-1.31;nan
9261;BME280;4667;42.726;23.252;2023-02-16T03:53:33;96453.25;;;-1.36;nan
9261;BME280;4667;42.726;23.252;2023-02-16T04:11:40;96438.38;;;-1.66;nan
9261;BME280;4667;42.726;23.252;2023-02-16T04:14:25;96437.56;;;-1.67;nan
9261;BME280;4667;42.726;23.252;2023-02-16T04:16:52;96438.38;;;-1.66;nan
9261;BME280;4667;42.726;23.252;2023-02-16T04:19:22;96438.09;;;-1.65;nan
9261;BME280;4667;42.726;23.252;2023-02-16T04:21:52;96432.50;;;-1.63;nan
9261;BME280;4667;42.726;23.252;2023-02-16T04:24:20;96444.72;;;-1.62;nan
9261;BME280;4667;42.726;23.252;2023-02-16T04:30:28;96429.81;;;-1.58;nan
9261;BME280;4667;42.726;23.252;2023-02-16T04:33:13;96436.38;;;-1.50;nan
9261;BME280;4667;42.726;23.252;2023-02-16T04:36:04;96437.44;;;-1.51;nan
9261;BME280;4667;42.726;23.252;2023-02-16T04:38:34;96437.44;;;-1.51;nan
9261;BME280;4667;42.726;23.252;2023-02-16T04:41:37;96440.38;;;-1.53;nan
9261;BME280;4667;42.726;23.252;2023-02-16T04:44:39;96439.50;;;-1.43;nan
9261;BME280;4667;42.726;23.252;2023-02-16T04:47:09;96448.81;;;-1.46;nan
9261;BME280;4667;42.726;23.252;2023-02-16T04:49:39;96445.16;;;-1.50;nan
9261;BME280;4667;42.726;23.252;2023-02-16T04:52:08;96439.03;;;-1.50;nan
9261;BME280;4667;42.726;23.252;2023-02-16T04:55:11;96448.03;;;-1.46;nan
9261;BME280;4667;42.726;23.252;2023-02-16T04:57:50;96449.63;;;-1.45;nan
9261;BME280;4667;42.726;23.252;2023-02-16T05:00:18;96457.63;;;-1.50;nan
9261;BME280;4667;42.726;23.252;2023-02-16T05:02:47;96454.19;;;-1.51;nan
9261;BME280;4667;42.726;23.252;2023-02-16T05:05:17;96452.66;;;-1.57;nan
9261;BME280;4667;42.726;23.252;2023-02-16T05:08:02;96444.16;;;-1.59;nan
9261;BME280;4667;42.726;23.252;2023-02-16T05:10:30;96453.44;;;-1.56;nan
9261;BME280;4667;42.726;23.252;2023-02-16T05:12:57;96456.59;;;-1.54;nan
9261;BME280;4667;42.726;23.252;2023-02-16T05:15:44;96468.00;;;-1.54;nan
9261;BME280;4667;42.726;23.252;2023-02-16T05:18:37;96460.34;;;-1.55;nan
9261;BME280;4667;42.726;23.252;2023-02-16T05:21:07;96456.75;;;-1.70;nan
9261;BME280;4667;42.726;23.252;2023-02-16T05:23:52;96450.34;;;-1.69;nan
9261;BME280;4667;42.726;23.252;2023-02-16T05:26:21;96460.97;;;-1.69;nan
9261;BME280;4667;42.726;23.252;2023-02-16T05:28:48;96468.09;;;-1.64;nan
9261;BME280;4667;42.726;23.252;2023-02-16T05:31:18;96467.34;;;-1.70;nan
9261;BME280;4667;42.726;23.252;2023-02-16T05:33:50;96466.78;;;-1.67;nan
9261;BME280;4667;42.726;23.252;2023-02-16T05:36:17;96472.94;;;-1.71;nan
9261;BME280;4667;42.726;23.252;2023-02-16T05:39:04;96468.25;;;-1.79;nan
9261;BME280;4667;42.726;23.252;2023-02-16T05:41:33;96474.31;;;-1.74;nan
9261;BME280;4667;42.726;23.252;2023-02-16T05:44:01;96477.16;;;-1.65;nan
9261;BME280;4667;42.726;23.252;2023-02-16T05:46:33;96468.19;;;-1.74;nan
9261;BME280;4667;42.726;23.252;2023-02-16T05:49:12;96481.66;;;-1.66;nan
9261;BME280;4667;42.726;23.252;2023-02-16T05:51:40;96480.88;;;-1.66;nan
9261;BME280;4667;42.726;23.252;2023-02-16T05:54:07;96489.13;;;-1.68;nan
9261;BME280;4667;42.726;23.252;2023-02-16T05:56:42;96486.44;;;-1.62;nan
9261;BME280;4667;42.726;23.252;2023-02-16T05:59:09;96491.19;;;-1.59;nan
9261;BME280;4667;42.726;23.252;2023-02-16T06:01:44;96500.22;;;-1.60;nan
9261;BME280;4667;42.726;23.252;2023-02-16T06:04:13;96492.97;;;-1.50;nan
9261;BME280;4667;42.726;23.252;2023-02-16T06:06:40;96496.84;;;-1.37;nan
9261;BME280;4667;42.726;23.252;2023-02-16T06:09:08;96506.38;;;-1.36;nan
9261;BME280;4667;42.726;23.252;2023-02-16T06:11:36;96505.19;;;-1.20;nan
9261;BME280;4667;42.726;23.252;2023-02-16T06:14:05;96506.69;;;-1.09;nan
9261;BME280;4667;42.726;23.252;2023-02-16T06:16:33;96506.69;;;-1.09;nan
9261;BME280;4667;42.726;23.252;2023-02-16T06:19:01;96507.16;;;-1.02;nan
9261;BME280;4667;42.726;23.252;2023-02-16T06:21:31;96513.22;;;-0.96;nan
9261;BME280;4667;42.726;23.252;2023-02-16T06:23:59;96507.16;;;-1.07;nan
9261;BME280;4667;42.726;23.252;2023-02-16T06:26:30;96514.81;;;-1.00;nan
9261;BME280;4667;42.726;23.252;2023-02-16T06:28:58;96509.50;;;-1.00;nan
9261;BME280;4667;42.726;23.252;2023-02-16T06:31:25;96513.44;;;-0.93;nan
9261;BME280;4667;42.726;23.252;2023-02-16T06:33:56;96520.00;;;-0.85;nan
9261;BME280;4667;42.726;23.252;2023-02-16T06:36:24;96505.91;;;-0.86;nan
9261;BME280;4667;42.726;23.252;2023-02-16T06:38:54;96505.28;;;-0.77;nan
9261;BME280;4667;42.726;23.252;2023-02-16T06:41:22;96508.38;;;-0.70;nan
9261;BME280;4667;42.726;23.252;2023-02-16T06:44:07;96519.44;;;-0.58;nan
9261;BME280;4667;42.726;23.252;2023-02-16T06:46:37;96520.69;;;-0.51;nan
9261;BME280;4667;42.726;23.252;2023-02-16T06:49:04;96519.41;;;-0.34;nan
9261;BME280;4667;42.726;23.252;2023-02-16T06:51:31;96509.72;;;-0.25;nan
9261;BME280;4667;42.726;23.252;2023-02-16T06:54:00;96514.69;;;-0.19;nan
9261;BME280;4667;42.726;23.252;2023-02-16T06:56:30;96518.53;;;-0.06;nan
9261;BME280;4667;42.726;23.252;2023-02-16T06:58:57;96516.88;;;-0.02;nan
9261;BME280;4667;42.726;23.252;2023-02-16T07:01:25;96512.47;;;0.07;nan
9261;BME280;4667;42.726;23.252;2023-02-16T07:03:53;96514.28;;;0.12;nan
9261;BME280;4667;42.726;23.252;2023-02-16T07:06:21;96508.44;;;0.28;nan
9261;BME280;4667;42.726;23.252;2023-02-16T07:08:49;96508.34;;;0.33;nan
9261;BME280;4667;42.726;23.252;2023-02-16T07:11:18;96489.44;;;0.35;nan
9261;BME280;4667;42.726;23.252;2023-02-16T07:13:46;96497.75;;;0.47;nan
9261;BME280;4667;42.726;23.252;2023-02-16T07:16:13;96491.56;;;0.33;nan
9261;BME280;4667;42.726;23.252;2023-02-16T07:18:40;96492.53;;;0.56;nan
9261;BME280;4667;42.726;23.252;2023-02-16T07:21:07;96485.09;;;0.85;nan
9261;BME280;4667;42.726;23.252;2023-02-16T07:23:35;96486.81;;;0.95;nan
9261;BME280;4667;42.726;23.252;2023-02-16T07:26:02;96483.41;;;1.49;nan
9261;BME280;4667;42.726;23.252;2023-02-16T07:28:31;96478.56;;;2.00;nan
9261;BME280;4667;42.726;23.252;2023-02-16T07:31:04;96475.13;;;2.67;nan
9261;BME280;4667;42.726;23.252;2023-02-16T07:33:31;96474.25;;;3.11;nan
9261;BME280;4667;42.726;23.252;2023-02-16T07:35:58;96473.63;;;3.45;nan
9261;BME280;4667;42.726;23.252;2023-02-16T07:38:25;96471.66;;;3.85;nan
9261;BME280;4667;42.726;23.252;2023-02-16T07:40:52;96464.28;;;4.25;nan
9261;BME280;4667;42.726;23.252;2023-02-16T07:43:23;96463.47;;;4.67;nan
9261;BME280;4667;42.726;23.252;2023-02-16T07:45:51;96470.09;;;4.78;nan
9261;BME280;4667;42.726;23.252;2023-02-16T07:48:19;96468.75;;;5.10;nan
9261;BME280;4667;42.726;23.252;2023-02-16T07:50:46;96468.03;;;5.30;nan
9261;BME280;4667;42.726;23.252;2023-02-16T07:53:15;96467.50;;;5.75;nan
9261;BME280;4667;42.726;23.252;2023-02-16T07:55:43;96470.28;;;5.96;nan
9261;BME280;4667;42.726;23.252;2023-02-16T07:58:11;96475.78;;;6.41;nan
9261;BME280;4667;42.726;23.252;2023-02-16T08:00:53;96458.78;;;6.82;nan
9261;BME280;4667;42.726;23.252;2023-02-16T08:03:20;96467.53;;;7.24;nan
9261;BME280;4667;42.726;23.252;2023-02-16T08:05:48;96472.75;;;7.65;nan
9261;BME280;4667;42.726;23.252;2023-02-16T08:08:15;96467.03;;;7.67;nan
9261;BME280;4667;42.726;23.252;2023-02-16T08:10:41;96472.19;;;7.84;nan
9261;BME280;4667;42.726;23.252;2023-02-16T08:13:11;96473.53;;;7.90;nan
9261;BME280;4667;42.726;23.252;2023-02-16T08:15:41;96483.59;;;8.17;nan
9261;BME280;4667;42.726;23.252;2023-02-16T08:18:12;96476.28;;;8.42;nan
9261;BME280;4667;42.726;23.252;2023-02-16T08:20:40;96476.91;;;7.51;nan
9261;BME280;4667;42.726;23.252;2023-02-16T08:23:07;96475.84;;;8.28;nan
9261;BME280;4667;42.726;23.252;2023-02-16T08:25:34;96481.19;;;8.52;nan
9261;BME280;4667;42.726;23.252;2023-02-16T08:28:01;96482.41;;;8.55;nan
9261;BME280;4667;42.726;23.252;2023-02-16T08:30:28;96476.31;;;8.58;nan
9261;BME280;4667;42.726;23.252;2023-02-16T08:32:56;96480.13;;;8.69;nan
9261;BME280;4667;42.726;23.252;2023-02-16T08:35:42;96477.72;;;8.80;nan
9261;BME280;4667;42.726;23.252;2023-02-16T08:38:13;96481.06;;;8.61;nan
9261;BME280;4667;42.726;23.252;2023-02-16T08:40:46;96467.59;;;9.20;nan
9261;BME280;4667;42.726;23.252;2023-02-16T08:43:14;96470.41;;;9.55;nan
9261;BME280;4667;42.726;23.252;2023-02-16T08:51:12;96464.19;;;9.86;nan
9261;BME280;4667;42.726;23.252;2023-02-16T08:53:39;96451.50;;;10.06;nan
9261;BME280;4667;42.726;23.252;2023-02-16T08:56:14;96466.19;;;9.11;nan
9261;BME280;4667;42.726;23.252;2023-02-16T08:58:56;96456.09;;;9.70;nan
9261;BME280;4667;42.726;23.252;2023-02-16T09:01:37;96461.16;;;9.56;nan
9261;BME280;4667;42.726;23.252;2023-02-16T09:04:07;96454.75;;;9.96;nan
9261;BME280;4667;42.726;23.252;2023-02-16T09:06:38;96460.53;;;9.94;nan
9261;BME280;4667;42.726;23.252;2023-02-16T09:09:07;96462.06;;;9.95;nan
9261;BME280;4667;42.726;23.252;2023-02-16T09:11:35;96453.50;;;10.09;nan
9261;BME280;4667;42.726;23.252;2023-02-16T09:14:04;96461.88;;;9.53;nan
9261;BME280;4667;42.726;23.252;2023-02-16T09:16:31;96452.94;;;9.68;nan
9261;BME280;4667;42.726;23.252;2023-02-16T09:19:03;96456.09;;;9.39;nan
9261;BME280;4667;42.726;23.252;2023-02-16T09:21:30;96451.78;;;10.01;nan
9261;BME280;4667;42.726;23.252;2023-02-16T09:24:00;96449.59;;;10.06;nan
9261;BME280;4667;42.726;23.252;2023-02-16T09:26:30;96451.63;;;9.78;nan
9261;BME280;4667;42.726;23.252;2023-02-16T09:28:58;96443.88;;;9.76;nan
9261;BME280;4667;42.726;23.252;2023-02-16T09:31:27;96442.09;;;10.00;nan
9261;BME280;4667;42.726;23.252;2023-02-16T09:34:14;96432.72;;;9.62;nan
9261;BME280;4667;42.726;23.252;2023-02-16T09:36:57;96440.47;;;10.14;nan
9261;BME280;4667;42.726;23.252;2023-02-16T09:39:30;96437.44;;;10.93;nan
9261;BME280;4667;42.726;23.252;2023-02-16T09:42:02;96432.34;;;11.33;nan
9261;BME280;4667;42.726;23.252;2023-02-16T09:44:40;96426.97;;;11.82;nan
9261;BME280;4667;42.726;23.252;2023-02-16T09:47:11;96423.28;;;12.54;nan
9261;BME280;4667;42.726;23.252;2023-02-16T09:49:42;96421.72;;;12.53;nan
9261;BME280;4667;42.726;23.252;2023-02-16T09:52:17;96417.81;;;12.50;nan
9261;BME280;4667;42.726;23.252;2023-02-16T09:54:50;96402.69;;;12.53;nan
9261;BME280;4667;42.726;23.252;2023-02-16T09:57:23;96407.03;;;13.28;nan
9261;BME280;4667;42.726;23.252;2023-02-16T10:00:02;96410.16;;;12.59;nan
9261;BME280;4667;42.726;23.252;2023-02-16T10:02:39;96401.97;;;13.30;nan
9261;BME280;4667;42.726;23.252;2023-02-16T10:05:17;96391.06;;;13.77;nan
9261;BME280;4667;42.726;23.252;2023-02-16T10:07:53;96387.44;;;13.59;nan
9261;BME280;4667;42.726;23.252;2023-02-16T10:10:28;96390.03;;;13.96;nan
9261;BME280;4667;42.726;23.252;2023-02-16T10:13:00;96386.81;;;14.42;nan
9261;BME280;4667;42.726;23.252;2023-02-16T10:15:30;96375.16;;;14.55;nan
9261;BME280;4667;42.726;23.252;2023-02-16T10:18:00;96374.56;;;15.47;nan
9261;BME280;4667;42.726;23.252;2023-02-16T10:20:31;96374.59;;;15.79;nan
9261;BME280;4667;42.726;23.252;2023-02-16T10:23:04;96368.25;;;16.24;nan
9261;BME280;4667;42.726;23.252;2023-02-16T10:25:40;96366.03;;;15.59;nan
9261;BME280;4667;42.726;23.252;2023-02-16T10:28:14;96365.97;;;15.17;nan
9261;BME280;4667;42.726;23.252;2023-02-16T10:30:47;96371.00;;;14.93;nan
9261;BME280;4667;42.726;23.252;2023-02-16T10:33:16;96364.44;;;15.40;nan
9261;BME280;4667;42.726;23.252;2023-02-16T10:35:48;96361.72;;;15.65;nan
9261;BME280;4667;42.726;23.252;2023-02-16T10:38:22;96357.03;;;15.83;nan
9261;BME280;4667;42.726;23.252;2023-02-16T10:41:00;96357.25;;;16.42;nan
9261;BME280;4667;42.726;23.252;2023-02-16T10:43:38;96352.84;;;16.73;nan
9261;BME280;4667;42.726;23.252;2023-02-16T10:46:10;96342.97;;;16.86;nan
9261;BME280;4667;42.726;23.252;2023-02-16T10:48:41;96332.94;;;17.28;nan
9261;BME280;4667;42.726;23.252;2023-02-16T10:51:10;96341.09;;;16.72;nan
9261;BME280;4667;42.726;23.252;2023-02-16T10:53:41;96336.28;;;16.94;nan
9261;BME280;4667;42.726;23.252;2023-02-16T10:56:29;96326.19;;;17.36;nan
9261;BME280;4667;42.726;23.252;2023-02-16T10:59:02;96325.50;;;17.25;nan
9261;BME280;4667;42.726;23.252;2023-02-16T11:01:35;96325.19;;;17.67;nan
9261;BME280;4667;42.726;23.252;2023-02-16T11:04:04;96313.16;;;17.95;nan
9261;BME280;4667;42.726;23.252;2023-02-16T11:06:36;96315.41;;;18.38;nan
9261;BME280;4667;42.726;23.252;2023-02-16T11:09:29;96307.63;;;17.61;nan
9261;BME280;4667;42.726;23.252;2023-02-16T11:11:58;96303.81;;;17.89;nan
9261;BME280;4667;42.726;23.252;2023-02-16T11:14:29;96304.63;;;17.86;nan
9261;BME280;4667;42.726;23.252;2023-02-16T11:17:06;96297.56;;;18.22;nan
9261;BME280;4667;42.726;23.252;2023-02-16T11:19:36;96293.56;;;17.97;nan
9261;BME280;4667;42.726;23.252;2023-02-16T11:22:33;96288.97;;;17.42;nan
9261;BME280;4667;42.726;23.252;2023-02-16T11:25:34;96287.69;;;17.94;nan
9261;BME280;4667;42.726;23.252;2023-02-16T11:28:35;96277.69;;;17.81;nan
9261;BME280;4667;42.726;23.252;2023-02-16T11:31:19;96280.59;;;18.34;nan
9261;BME280;4667;42.726;23.252;2023-02-16T11:34:05;96269.00;;;18.50;nan
9261;BME280;4667;42.726;23.252;2023-02-16T11:36:45;96272.84;;;19.10;nan
9261;BME280;4667;42.726;23.252;2023-02-16T11:39:37;96269.66;;;19.62;nan
9261;BME280;4667;42.726;23.252;2023-02-16T11:42:28;96267.44;;;19.76;nan
9261;BME280;4667;42.726;23.252;2023-02-16T11:45:02;96271.16;;;19.66;nan
9261;BME280;4667;42.726;23.252;2023-02-16T11:47:32;96268.34;;;19.70;nan
9261;BME280;4667;42.726;23.252;2023-02-16T11:50:17;96265.69;;;19.39;nan
9261;BME280;4667;42.726;23.252;2023-02-16T11:52:45;96265.50;;;19.53;nan
9261;BME280;4667;42.726;23.252;2023-02-16T11:55:20;96252.94;;;19.95;nan
9261;BME280;4667;42.726;23.252;2023-02-16T11:57:47;96251.88;;;19.46;nan
9261;BME280;4667;42.726;23.252;2023-02-16T12:00:18;96256.72;;;19.82;nan
9261;BME280;4667;42.726;23.252;2023-02-16T12:03:14;96245.09;;;20.33;nan
9261;BME280;4667;42.726;23.252;2023-02-16T12:05:56;96237.41;;;20.05;nan
9261;BME280;4667;42.726;23.252;2023-02-16T12:08:40;96242.69;;;20.35;nan
9261;BME280;4667;42.726;23.252;2023-02-16T12:11:21;96236.56;;;20.64;nan
9261;BME280;4667;42.726;23.252;2023-02-16T12:14:06;96233.31;;;20.69;nan
9261;BME280;4667;42.726;23.252;2023-02-16T12:16:45;96221.41;;;21.24;nan
9261;BME280;4667;42.726;23.252;2023-02-16T12:19:25;96220.03;;;20.28;nan
9261;BME280;4667;42.726;23.252;2023-02-16T12:22:04;96216.72;;;20.72;nan
9261;BME280;4667;42.726;23.252;2023-02-16T12:24:45;96212.00;;;19.97;nan
9261;BME280;4667;42.726;23.252;2023-02-16T12:27:18;96214.53;;;20.48;nan
9261;BME280;4667;42.726;23.252;2023-02-16T12:29:55;96201.88;;;20.50;nan
9261;BME280;4667;42.726;23.252;2023-02-16T12:32:41;96205.44;;;20.67;nan
9261;BME280;4667;42.726;23.252;2023-02-16T12:35:32;96198.88;;;20.61;nan
9261;BME280;4667;42.726;23.252;2023-02-16T12:38:15;96190.47;;;20.84;nan
9261;BME280;4667;42.726;23.252;2023-02-16T12:40:50;96191.53;;;20.18;nan
9261;BME280;4667;42.726;23.252;2023-02-16T12:43:33;96181.50;;;20.28;nan
9261;BME280;4667;42.726;23.252;2023-02-16T12:46:08;96181.59;;;20.76;nan
9261;BME280;4667;42.726;23.252;2023-02-16T12:48:42;96188.03;;;20.70;nan
9261;BME280;4667;42.726;23.252;2023-02-16T12:51:15;96174.78;;;21.13;nan
9261;BME280;4667;42.726;23.252;2023-02-16T12:53:48;96179.72;;;20.90;nan
9261;BME280;4667;42.726;23.252;2023-02-16T12:56:20;96176.25;;;19.97;nan
9261;BME280;4667;42.726;23.252;2023-02-16T12:58:52;96173.72;;;19.87;nan
9261;BME280;4667;42.726;23.252;2023-02-16T13:01:23;96169.00;;;19.68;nan
9261;BME280;4667;42.726;23.252;2023-02-16T13:03:56;96172.38;;;19.55;nan
9261;BME280;4667;42.726;23.252;2023-02-16T13:06:29;96163.38;;;20.30;nan
9261;BME280;4667;42.726;23.252;2023-02-16T13:09:04;96165.06;;;20.76;nan
9261;BME280;4667;42.726;23.252;2023-02-16T13:11:39;96154.56;;;20.88;nan
9261;BME280;4667;42.726;23.252;2023-02-16T13:14:15;96153.16;;;21.44;nan
9261;BME280;4667;42.726;23.252;2023-02-16T13:16:46;96156.69;;;21.45;nan
9261;BME280;4667;42.726;23.252;2023-02-16T13:19:16;96146.22;;;21.52;nan
9261;BME280;4667;42.726;23.252;2023-02-16T13:22:04;96152.56;;;21.37;nan
9261;BME280;4667;42.726;23.252;2023-02-16T13:24:45;96150.50;;;20.92;nan
9261;BME280;4667;42.726;23.252;2023-02-16T13:27:25;96137.38;;;20.67;nan
9261;BME280;4667;42.726;23.252;2023-02-16T13:30:03;96138.13;;;20.52;nan
9261;BME280;4667;42.726;23.252;2023-02-16T13:33:03;96131.53;;;20.29;nan
9261;BME280;4667;42.726;23.252;2023-02-16T13:36:08;96123.44;;;20.58;nan
9261;BME280;4667;42.726;23.252;2023-02-16T13:39:02;96131.22;;;20.92;nan
9261;BME280;4667;42.726;23.252;2023-02-16T13:41:47;96126.75;;;21.14;nan
9261;BME280;4667;42.726;23.252;2023-02-16T13:44:21;96132.78;;;21.26;nan
9261;BME280;4667;42.726;23.252;2023-02-16T13:46:51;96129.19;;;21.41;nan
9261;BME280;4667;42.726;23.252;2023-02-16T13:49:29;96125.16;;;21.58;nan
9261;BME280;4667;42.726;23.252;2023-02-16T13:52:06;96117.97;;;21.03;nan
9261;BME280;4667;42.726;23.252;2023-02-16T13:54:35;96121.59;;;21.00;nan
9261;BME280;4667;42.726;23.252;2023-02-16T13:57:03;96120.16;;;20.63;nan
9261;BME280;4667;42.726;23.252;2023-02-16T13:59:56;96123.00;;;20.60;nan
9261;BME280;4667;42.726;23.252;2023-02-16T14:02:52;96119.28;;;20.34;nan
9261;BME280;4667;42.726;23.252;2023-02-16T14:05:38;96116.47;;;20.38;nan
9261;BME280;4667;42.726;23.252;2023-02-16T14:08:27;96113.50;;;20.28;nan
9261;BME280;4667;42.726;23.252;2023-02-16T14:11:00;96117.56;;;20.40;nan
9261;BME280;4667;42.726;23.252;2023-02-16T14:13:30;96111.28;;;20.56;nan
9261;BME280;4667;42.726;23.252;2023-02-16T14:16:03;96110.72;;;20.28;nan
9261;BME280;4667;42.726;23.252;2023-02-16T14:18:36;96114.84;;;20.20;nan
9261;BME280;4667;42.726;23.252;2023-02-16T14:21:16;96117.41;;;20.11;nan
9261;BME280;4667;42.726;23.252;2023-02-16T14:23:53;96114.31;;;20.09;nan
9261;BME280;4667;42.726;23.252;2023-02-16T14:26:20;96116.53;;;19.39;nan
9261;BME280;4667;42.726;23.252;2023-02-16T14:29:06;96106.16;;;19.07;nan
9261;BME280;4667;42.726;23.252;2023-02-16T14:31:42;96108.06;;;19.10;nan
9261;BME280;4667;42.726;23.252;2023-02-16T14:34:16;96112.69;;;18.43;nan
9261;BME280;4667;42.726;23.252;2023-02-16T14:37:08;96108.66;;;18.51;nan
9261;BME280;4667;42.726;23.252;2023-02-16T14:39:38;96103.50;;;18.30;nan
9261;BME280;4667;42.726;23.252;2023-02-16T14:42:07;96107.56;;;18.22;nan
9261;BME280;4667;42.726;23.252;2023-02-16T14:44:51;96100.44;;;18.24;nan
9261;BME280;4667;42.726;23.252;2023-02-16T14:47:31;96108.25;;;18.26;nan
9261;BME280;4667;42.726;23.252;2023-02-16T14:50:14;96107.28;;;18.13;nan
9261;BME280;4667;42.726;23.252;2023-02-16T14:53:03;96101.56;;;18.04;nan
9261;BME280;4667;42.726;23.252;2023-02-16T14:55:50;96110.28;;;17.95;nan
9261;BME280;4667;42.726;23.252;2023-02-16T14:58:26;96105.38;;;18.10;nan
9261;BME280;4667;42.726;23.252;2023-02-16T15:01:02;96101.34;;;18.41;nan
9261;BME280;4667;42.726;23.252;2023-02-16T15:03:39;96114.50;;;18.53;nan
9261;BME280;4667;42.726;23.252;2023-02-16T15:06:16;96105.72;;;18.39;nan